Time;durP1;ratioP1;P1;durP2;ratioP2;P2;SDS_P1;SDS_P2;PMS_P1;PMS_P2;Temp;Humidity;BMP_temperature;BMP_pressure;BME280_temperature;BME280_humidity;BME280_pressure;Samples;Min_cycle;Max_cycle;Signal;HPM_P1;HPM_P2
2021/12/03 00:01:17;;;;;;;7.63;2.40;;;3.90;99.90;;;;;;5032582;28;20690;-59
2021/12/03 00:03:43;;;;;;;6.77;1.87;;;3.90;99.90;;;;;;5032914;28;20305;-60
2021/12/03 00:06:09;;;;;;;8.90;1.70;;;3.80;99.90;;;;;;5014800;28;20186;-60
2021/12/03 00:08:35;;;;;;;9.47;2.10;;;3.90;99.90;;;;;;5032870;28;20181;-60
2021/12/03 00:11:03;;;;;;;6.90;1.50;;;3.90;99.90;;;;;;5033016;28;20272;-58
2021/12/03 00:13:31;;;;;;;8.73;1.67;;;3.90;99.90;;;;;;5032833;28;20715;-59
2021/12/03 00:15:58;;;;;;;8.40;1.67;;;4.50;99.90;;;;;;5033477;28;20206;-59
2021/12/03 00:18:25;;;;;;;12.37;1.80;;;3.90;99.90;;;;;;5033017;28;20180;-61
2021/12/03 00:20:52;;;;;;;7.53;1.70;;;3.90;99.90;;;;;;5032400;28;20235;-58
2021/12/03 00:23:19;;;;;;;6.97;1.77;;;3.90;99.90;;;;;;5032701;28;20217;-60
2021/12/03 00:25:44;;;;;;;6.80;1.60;;;3.90;99.90;;;;;;5032336;28;20182;-59
2021/12/03 00:28:10;;;;;;;5.60;1.50;;;3.90;99.90;;;;;;5032631;28;20186;-59
2021/12/03 00:30:37;;;;;;;11.43;2.10;;;3.90;99.90;;;;;;5033289;28;20197;-59
2021/12/03 00:33:05;;;;;;;9.77;1.90;;;3.90;99.90;;;;;;5032568;28;20264;-59
2021/12/03 00:35:31;;;;;;;12.80;1.93;;;3.80;99.90;;;;;;5032569;28;20718;-59
2021/12/03 00:37:58;;;;;;;12.53;1.93;;;3.90;99.90;;;;;;5032548;28;20197;-59
2021/12/03 00:40:30;;;;;;;10.00;1.60;;;3.90;99.90;;;;;;5031626;28;20728;-59
2021/12/03 00:42:58;;;;;;;3.80;1.30;;;3.90;99.90;;;;;;5032806;28;20217;-59
2021/12/03 00:45:24;;;;;;;11.97;2.07;;;3.90;99.90;;;;;;5032908;28;20268;-59
2021/12/03 00:47:49;;;;;;;10.23;1.80;;;3.90;99.90;;;;;;5015371;28;20178;-60
2021/12/03 00:50:19;;;;;;;6.73;1.77;;;3.90;99.90;;;;;;5032615;28;20181;-60
2021/12/03 00:52:46;;;;;;;5.90;1.83;;;3.90;99.90;;;;;;5032307;28;20644;-60
2021/12/03 00:55:13;;;;;;;10.07;1.87;;;4.00;99.90;;;;;;5031893;28;20181;-60
2021/12/03 00:57:39;;;;;;;6.03;1.63;;;4.00;99.90;;;;;;5032590;28;20177;-60
2021/12/03 01:00:10;;;;;;;9.60;1.50;;;4.00;99.90;;;;;;5032763;28;20170;-62
2021/12/03 01:02:36;;;;;;;11.23;1.67;;;4.00;99.90;;;;;;5032757;28;20197;-60
2021/12/03 01:05:02;;;;;;;6.20;1.67;;;4.00;99.90;;;;;;5031994;28;20251;-60
2021/12/03 01:07:28;;;;;;;5.70;1.97;;;4.00;99.90;;;;;;5032251;28;20174;-59
2021/12/03 01:09:54;;;;;;;8.37;1.70;;;4.00;99.90;;;;;;5031793;28;20231;-59
2021/12/03 01:12:20;;;;;;;7.77;1.93;;;4.00;99.90;;;;;;5031837;28;20169;-60
2021/12/03 01:14:45;;;;;;;13.47;2.27;;;4.00;99.90;;;;;;5031662;28;20182;-59
2021/12/03 01:17:12;;;;;;;11.10;2.27;;;4.00;99.90;;;;;;5031398;28;20178;-59
2021/12/03 01:19:37;;;;;;;8.17;1.90;;;4.10;99.90;;;;;;5031759;28;20186;-60
2021/12/03 01:22:04;;;;;;;8.37;1.50;;;4.10;99.90;;;;;;5031392;28;20732;-61
2021/12/03 01:24:30;;;;;;;9.53;1.83;;;4.10;99.90;;;;;;5030832;28;20224;-60
2021/12/03 01:26:56;;;;;;;7.33;2.00;;;4.10;99.90;;;;;;5031334;28;20182;-60
2021/12/03 01:29:23;;;;;;;10.00;2.33;;;4.10;99.90;;;;;;5031462;28;20201;-60
2021/12/03 01:31:51;;;;;;;8.47;2.13;;;4.10;99.90;;;;;;5031575;28;20177;-60
2021/12/03 01:34:17;;;;;;;7.57;2.17;;;4.20;99.90;;;;;;5031058;28;20793;-60
2021/12/03 01:36:43;;;;;;;12.20;2.10;;;4.20;99.90;;;;;;5030775;28;20721;-60
2021/12/03 01:39:11;;;;;;;5.60;1.90;;;4.20;99.90;;;;;;5031008;28;20556;-61
2021/12/03 01:41:37;;;;;;;6.77;2.00;;;4.20;99.90;;;;;;5030670;28;20174;-60
2021/12/03 01:44:03;;;;;;;8.00;2.23;;;4.20;99.90;;;;;;5031082;28;20400;-60
2021/12/03 01:46:31;;;;;;;8.03;2.10;;;4.10;99.90;;;;;;5030725;28;20264;-60
2021/12/03 01:48:58;;;;;;;9.30;2.20;;;3.90;99.90;;;;;;5030919;28;20664;-60
2021/12/03 01:51:25;;;;;;;10.07;2.77;;;4.20;99.90;;;;;;5030689;28;20208;-60
2021/12/03 01:53:52;;;;;;;4.13;1.67;;;4.20;99.90;;;;;;5031049;28;20269;-61
2021/12/03 01:56:19;;;;;;;8.80;2.13;;;4.20;99.90;;;;;;5030902;28;20228;-60
2021/12/03 01:58:47;;;;;;;4.53;1.90;;;4.20;99.90;;;;;;5030994;28;20177;-60
2021/12/03 02:01:21;;;;;;;9.77;1.80;;;4.20;99.90;;;;;;5030767;28;20174;-60
2021/12/03 02:03:52;;;;;;;6.63;1.73;;;4.20;99.90;;;;;;5030856;28;20204;-60
2021/12/03 02:06:20;;;;;;;6.63;1.70;;;4.20;99.90;;;;;;5030680;28;20213;-61
2021/12/03 02:08:46;;;;;;;6.93;2.30;;;4.30;99.90;;;;;;5030980;28;20185;-60
2021/12/03 02:11:12;;;;;;;6.17;2.00;;;4.30;99.90;;;;;;5030925;28;20166;-60
2021/12/03 02:13:39;;;;;;;5.37;1.73;;;4.30;99.90;;;;;;5030607;28;20233;-62
2021/12/03 02:16:06;;;;;;;5.73;1.80;;;4.30;99.90;;;;;;5030568;28;20174;-59
2021/12/03 02:18:32;;;;;;;5.23;1.47;;;4.40;99.90;;;;;;5030691;28;20180;-61
2021/12/03 02:21:00;;;;;;;2.50;1.07;;;4.40;99.90;;;;;;5030374;28;20543;-60
2021/12/03 02:23:28;;;;;;;4.00;1.50;;;4.50;99.90;;;;;;5030974;28;20221;-60
2021/12/03 02:25:55;;;;;;;3.10;1.33;;;4.50;99.90;;;;;;5030397;28;20277;-59
2021/12/03 02:28:24;;;;;;;5.93;1.73;;;4.50;99.90;;;;;;5030172;28;20189;-59
2021/12/03 02:30:50;;;;;;;8.57;1.53;;;4.60;99.90;;;;;;5030764;28;20192;-60
2021/12/03 02:33:16;;;;;;;6.40;1.40;;;4.60;99.90;;;;;;5030325;28;20561;-61
2021/12/03 02:35:44;;;;;;;4.20;1.30;;;4.60;99.90;;;;;;5030535;28;20710;-62
2021/12/03 02:38:12;;;;;;;7.10;1.37;;;4.70;99.90;;;;;;5030575;28;20182;-61
2021/12/03 02:40:39;;;;;;;3.77;1.23;;;4.70;99.90;;;;;;5030243;28;20174;-62
2021/12/03 02:43:05;;;;;;;7.37;1.40;;;4.80;99.90;;;;;;5030630;28;20245;-60
2021/12/03 02:45:31;;;;;;;6.53;1.30;;;4.80;99.90;;;;;;5030329;28;20178;-61
2021/12/03 02:48:00;;;;;;;8.50;1.37;;;5.30;99.90;;;;;;5030571;28;20186;-61
2021/12/03 02:50:26;;;;;;;3.60;1.53;;;4.90;99.90;;;;;;5030559;28;20265;-61
2021/12/03 02:52:53;;;;;;;4.97;1.33;;;4.90;99.90;;;;;;5030301;28;20174;-61
2021/12/03 02:55:19;;;;;;;4.10;1.23;;;5.00;99.90;;;;;;5030465;28;20180;-61
2021/12/03 02:57:45;;;;;;;9.57;1.90;;;5.00;99.90;;;;;;5030348;28;20178;-59
2021/12/03 03:00:14;;;;;;;4.87;1.70;;;5.00;99.90;;;;;;5030382;28;20162;-60
2021/12/03 03:02:40;;;;;;;6.37;1.53;;;5.00;99.90;;;;;;5014100;28;20213;-60
2021/12/03 03:05:08;;;;;;;6.07;1.40;;;5.60;99.90;;;;;;5033361;28;20318;-60
2021/12/03 03:07:34;;;;;;;3.93;1.40;;;5.10;99.90;;;;;;5033826;28;20202;-60
2021/12/03 03:10:00;;;;;;;4.57;1.27;;;5.20;99.90;;;;;;5034071;28;20200;-60
2021/12/03 03:12:26;;;;;;;1.87;1.10;;;5.20;99.90;;;;;;5033930;28;20308;-60
2021/12/03 03:14:55;;;;;;;5.37;1.07;;;5.20;99.90;;;;;;5033711;28;20613;-61
2021/12/03 03:17:23;;;;;;;5.07;1.07;;;5.30;99.90;;;;;;5034105;28;20696;-61
2021/12/03 03:19:49;;;;;;;4.37;0.87;;;5.30;99.90;;;;;;5033846;28;20166;-60
2021/12/03 03:22:16;;;;;;;4.57;0.80;;;5.40;99.90;;;;;;5033172;28;20181;-60
2021/12/03 03:24:43;;;;;;;1.97;0.70;;;5.50;99.90;;;;;;5032007;28;20174;-60
2021/12/03 03:27:09;;;;;;;3.03;0.87;;;6.10;99.90;;;;;;5033158;28;20648;-60
2021/12/03 03:29:35;;;;;;;1.47;0.43;;;5.60;99.90;;;;;;5032835;28;20537;-60
2021/12/03 03:32:02;;;;;;;4.40;0.67;;;5.70;99.90;;;;;;5032823;28;20181;-61
2021/12/03 03:34:28;;;;;;;2.77;0.70;;;5.80;99.90;;;;;;5033089;28;20280;-60
2021/12/03 03:36:54;;;;;;;0.93;0.27;;;6.00;99.90;;;;;;5033615;28;20170;-60
2021/12/03 03:39:20;;;;;;;1.33;0.50;;;5.90;99.90;;;;;;5033457;28;20178;-60
2021/12/03 03:41:46;;;;;;;2.60;0.40;;;5.90;99.90;;;;;;5032945;28;20171;-60
2021/12/03 03:44:15;;;;;;;1.67;0.50;;;6.00;99.90;;;;;;5033009;28;20220;-60
2021/12/03 03:46:45;;;;;;;1.30;0.20;;;6.00;99.90;;;;;;5033417;28;20209;-60
2021/12/03 03:49:10;;;;;;;2.03;0.20;;;6.10;99.90;;;;;;5033211;28;20182;-61
2021/12/03 03:51:37;;;;;;;2.30;0.40;;;6.20;99.90;;;;;;5033317;28;20534;-60
2021/12/03 03:54:03;;;;;;;1.03;0.40;;;6.20;99.90;;;;;;5033099;28;20178;-60
2021/12/03 03:56:30;;;;;;;2.00;0.20;;;6.30;99.90;;;;;;5033070;28;20264;-60
2021/12/03 03:58:56;;;;;;;1.67;0.87;;;6.30;99.90;;;;;;5033080;28;20170;-62
2021/12/03 04:01:22;;;;;;;2.40;0.40;;;6.40;99.90;;;;;;5033180;28;20178;-60
2021/12/03 04:03:48;;;;;;;0.10;0.10;;;6.40;99.90;;;;;;5032141;28;20214;-60
2021/12/03 04:06:16;;;;;;;2.40;0.30;;;6.50;99.90;;;;;;5032397;28;20209;-61
2021/12/03 04:08:43;;;;;;;1.47;0.33;;;6.50;99.90;;;;;;5033011;28;20637;-61
2021/12/03 04:11:10;;;;;;;2.23;0.30;;;6.60;99.90;;;;;;5015210;28;20224;-60
2021/12/03 04:13:36;;;;;;;0.10;0.00;;;6.70;99.90;;;;;;5032408;28;20301;-61
2021/12/03 04:16:03;;;;;;;0.10;0.10;;;6.80;99.90;;;;;;5032826;28;20257;-61
2021/12/03 04:18:29;;;;;;;1.30;0.30;;;6.80;99.90;;;;;;5032723;28;20282;-61
2021/12/03 04:20:55;;;;;;;0.33;0.20;;;6.90;99.90;;;;;;5032290;28;20676;-61
2021/12/03 04:23:20;;;;;;;2.37;0.30;;;6.90;99.90;;;;;;5032257;28;20562;-60
2021/12/03 04:25:47;;;;;;;0.93;0.10;;;6.90;99.90;;;;;;5032627;28;20166;-60
2021/12/03 04:28:14;;;;;;;0.83;0.20;;;6.90;99.90;;;;;;5032409;28;20178;-60
2021/12/03 04:30:40;;;;;;;0.60;0.17;;;6.90;99.90;;;;;;5032441;28;20193;-60
2021/12/03 04:33:07;;;;;;;1.10;0.30;;;7.00;99.90;;;;;;5032683;28;20243;-60
2021/12/03 04:35:33;;;;;;;0.37;0.10;;;7.00;99.90;;;;;;5032592;28;20182;-61
2021/12/03 04:37:59;;;;;;;0.23;0.20;;;7.00;99.90;;;;;;5032381;28;20232;-59
2021/12/03 04:40:26;;;;;;;1.07;0.30;;;7.00;99.90;;;;;;5032091;28;20672;-58
2021/12/03 04:42:52;;;;;;;0.97;0.23;;;7.00;99.90;;;;;;5031979;28;20213;-59
2021/12/03 04:45:20;;;;;;;0.87;0.20;;;7.00;99.90;;;;;;5032190;28;20174;-58
2021/12/03 04:47:47;;;;;;;0.60;0.20;;;7.00;99.90;;;;;;5032052;28;20208;-58
2021/12/03 04:50:15;;;;;;;1.47;0.20;;;6.90;99.90;;;;;;5031610;28;20663;-58
2021/12/03 04:52:41;;;;;;;1.87;0.30;;;7.00;99.90;;;;;;5031936;28;20177;-58
2021/12/03 04:55:08;;;;;;;0.47;0.20;;;7.00;99.90;;;;;;5031765;28;20706;-59
2021/12/03 04:57:35;;;;;;;0.57;0.20;;;7.00;99.90;;;;;;5031932;28;20636;-58
2021/12/03 05:00:03;;;;;;;1.60;0.27;;;7.20;99.90;;;;;;5031971;28;20217;-59
2021/12/03 05:02:28;;;;;;;1.73;0.10;;;7.30;99.90;;;;;;5031468;28;20721;-58
2021/12/03 05:04:59;;;;;;;2.20;0.07;;;7.60;99.90;;;;;;5032009;28;20178;-60
2021/12/03 05:07:42;;;;;;;0.20;0.10;;;7.70;99.90;;;;;;5031861;28;20723;-59
2021/12/03 05:10:09;;;;;;;0.00;0.00;;;7.80;99.90;;;;;;5031603;28;20248;-58
2021/12/03 05:12:36;;;;;;;0.63;0.00;;;7.90;99.90;;;;;;5016760;28;20192;-58
2021/12/03 05:15:02;;;;;;;0.00;0.00;;;8.00;99.90;;;;;;5031593;28;20204;-59
2021/12/03 05:17:29;;;;;;;0.00;0.00;;;8.00;99.90;;;;;;5031506;28;20174;-58
2021/12/03 05:19:55;;;;;;;0.30;0.10;;;8.10;99.90;;;;;;5031151;28;20182;-59
2021/12/03 05:22:21;;;;;;;2.70;0.10;;;8.10;99.90;;;;;;5031227;28;20242;-58
2021/12/03 05:24:47;;;;;;;2.33;0.10;;;8.10;99.90;;;;;;5031077;28;20215;-58
2021/12/03 05:27:19;;;;;;;1.20;0.27;;;8.10;99.90;;;;;;5031352;28;20258;-58
2021/12/03 05:29:47;;;;;;;0.20;0.10;;;8.20;99.90;;;;;;5031465;28;20640;-58
2021/12/03 05:32:14;;;;;;;1.37;0.10;;;8.20;99.90;;;;;;5031066;28;20247;-58
2021/12/03 05:34:40;;;;;;;0.53;0.10;;;7.80;99.90;;;;;;5031256;28;20244;-58
2021/12/03 05:37:08;;;;;;;0.23;0.07;;;8.20;99.90;;;;;;5031276;28;20173;-59
2021/12/03 05:39:37;;;;;;;0.23;0.10;;;8.30;99.90;;;;;;5031079;28;20256;-59
2021/12/03 05:42:04;;;;;;;0.90;0.10;;;8.40;99.90;;;;;;5030956;28;20173;-59
2021/12/03 05:44:31;;;;;;;0.20;0.20;;;8.40;99.90;;;;;;5030963;28;20276;-59
2021/12/03 05:46:58;;;;;;;0.40;0.20;;;8.60;99.90;;;;;;5031109;28;20827;-59
2021/12/03 05:49:24;;;;;;;1.00;0.30;;;8.60;99.90;;;;;;5030866;28;20181;-59
2021/12/03 05:51:50;;;;;;;1.13;0.30;;;8.70;99.90;;;;;;5030769;28;20275;-59
2021/12/03 05:54:16;;;;;;;0.40;0.30;;;8.70;99.90;;;;;;5031044;28;20177;-59
2021/12/03 05:56:42;;;;;;;0.10;0.10;;;8.80;99.90;;;;;;5030700;28;20277;-59
2021/12/03 05:59:08;;;;;;;2.10;0.53;;;8.80;99.90;;;;;;5030985;28;20656;-59
2021/12/03 06:01:34;;;;;;;2.70;0.37;;;8.80;99.90;;;;;;5030291;28;20694;-59
2021/12/03 06:03:59;;;;;;;4.47;0.50;;;8.80;99.90;;;;;;5029848;28;20255;-59
2021/12/03 06:06:25;;;;;;;4.17;0.50;;;8.90;99.90;;;;;;5030980;28;20227;-59
2021/12/03 06:08:52;;;;;;;3.07;0.40;;;8.90;99.90;;;;;;5030905;28;20717;-59
2021/12/03 06:11:18;;;;;;;3.03;0.60;;;9.00;99.90;;;;;;5029746;28;20178;-58
2021/12/03 06:13:44;;;;;;;3.03;0.70;;;9.00;99.90;;;;;;5030550;28;20222;-59
2021/12/03 06:16:12;;;;;;;2.47;0.70;;;9.00;99.90;;;;;;5030742;28;20180;-59
2021/12/03 06:18:39;;;;;;;1.57;0.60;;;9.00;99.90;;;;;;5030423;28;20257;-59
2021/12/03 06:21:07;;;;;;;3.57;0.90;;;9.10;99.90;;;;;;5030188;28;20266;-60
2021/12/03 06:23:33;;;;;;;2.37;1.20;;;9.10;99.90;;;;;;5030277;28;20214;-59
2021/12/03 06:26:00;;;;;;;2.70;0.70;;;9.10;99.90;;;;;;5030156;28;20219;-59
2021/12/03 06:28:27;;;;;;;2.87;0.93;;;9.10;99.90;;;;;;5030520;28;20540;-59
2021/12/03 06:30:53;;;;;;;3.40;0.90;;;9.10;99.90;;;;;;5030284;28;20209;-59
2021/12/03 06:33:19;;;;;;;2.30;0.97;;;9.00;99.90;;;;;;5029915;28;20173;-59
2021/12/03 06:35:47;;;;;;;2.30;1.37;;;9.00;99.90;;;;;;5030573;28;20174;-59
2021/12/03 06:38:13;;;;;;;2.73;1.20;;;9.10;99.90;;;;;;5032693;28;20196;-59
2021/12/03 06:40:40;;;;;;;3.93;0.97;;;9.00;99.90;;;;;;5034142;28;20205;-59
2021/12/03 06:43:05;;;;;;;4.97;1.13;;;9.00;99.90;;;;;;5034252;28;20202;-58
2021/12/03 06:45:31;;;;;;;5.93;1.67;;;8.80;99.90;;;;;;5034262;28;20497;-59
2021/12/03 06:47:57;;;;;;;5.87;1.90;;;8.70;99.90;;;;;;5034360;28;20182;-59
2021/12/03 06:50:24;;;;;;;4.97;2.17;;;9.00;99.90;;;;;;5034029;28;20182;-59
2021/12/03 06:52:58;;;;;;;10.20;2.80;;;9.00;99.90;;;;;;5034132;28;20178;-59
2021/12/03 06:55:24;;;;;;;6.57;3.23;;;9.10;99.90;;;;;;5034084;28;20683;-59
2021/12/03 06:57:50;;;;;;;8.47;3.20;;;9.10;99.90;;;;;;5034005;28;20208;-59
2021/12/03 07:00:17;;;;;;;10.67;3.60;;;9.20;99.90;;;;;;5016095;28;20170;-58
2021/12/03 07:02:43;;;;;;;8.57;4.00;;;9.30;99.90;;;;;;5034056;28;20236;-59
2021/12/03 07:05:09;;;;;;;8.40;4.10;;;9.40;99.90;;;;;;5033714;28;20580;-58
2021/12/03 07:07:35;;;;;;;17.00;4.93;;;9.40;99.90;;;;;;5033880;28;20177;-59
2021/12/03 07:10:03;;;;;;;14.77;4.77;;;9.30;99.90;;;;;;5033765;28;20308;-59
2021/12/03 07:12:29;;;;;;;15.43;5.53;;;9.30;99.90;;;;;;5033828;28;20174;-61
2021/12/03 07:14:55;;;;;;;17.40;6.47;;;9.30;99.90;;;;;;5033674;28;20291;-61
2021/12/03 07:17:21;;;;;;;12.17;5.90;;;9.20;99.90;;;;;;5033410;28;20170;-61
2021/12/03 07:19:47;;;;;;;18.87;6.27;;;9.20;99.90;;;;;;5033305;28;20177;-61
2021/12/03 07:22:13;;;;;;;14.33;6.97;;;9.20;99.90;;;;;;5015858;28;20182;-61
2021/12/03 07:24:38;;;;;;;16.20;8.63;;;9.60;99.90;;;;;;5015724;28;20659;-61
2021/12/03 07:27:05;;;;;;;15.17;8.67;;;9.10;99.90;;;;;;5015566;28;20281;-61
2021/12/03 07:29:32;;;;;;;22.40;10.63;;;9.10;99.90;;;;;;5033694;28;20252;-61
2021/12/03 07:31:58;;;;;;;18.33;10.17;;;9.10;99.90;;;;;;5032832;28;20547;-63
2021/12/03 07:34:24;;;;;;;22.13;11.53;;;9.10;99.90;;;;;;5033484;28;20181;-61
2021/12/03 07:36:50;;;;;;;20.00;12.23;;;9.10;99.90;;;;;;5033237;28;20177;-62
2021/12/03 07:39:15;;;;;;;19.73;12.73;;;9.10;99.90;;;;;;5033131;28;20649;-62
2021/12/03 07:41:41;;;;;;;23.37;12.80;;;9.10;99.90;;;;;;5032820;28;20273;-61
2021/12/03 07:44:08;;;;;;;22.50;13.40;;;9.10;99.90;;;;;;5033138;28;20221;-62
2021/12/03 07:46:35;;;;;;;27.63;13.73;;;9.00;99.90;;;;;;5032038;28;20249;-63
2021/12/03 07:49:02;;;;;;;22.03;13.03;;;8.90;99.90;;;;;;5031895;28;20171;-62
2021/12/03 07:51:28;;;;;;;19.67;12.50;;;8.90;99.90;;;;;;5032688;28;20545;-61
2021/12/03 07:53:54;;;;;;;21.50;13.17;;;8.80;99.90;;;;;;5032306;28;20193;-62
2021/12/03 07:56:20;;;;;;;22.43;13.67;;;8.80;99.90;;;;;;5032001;28;20582;-62
2021/12/03 07:58:46;;;;;;;25.27;14.80;;;8.70;99.90;;;;;;5032063;28;20177;-62
2021/12/03 08:01:12;;;;;;;26.33;14.17;;;8.70;99.90;;;;;;5032102;28;20237;-62
2021/12/03 08:03:37;;;;;;;24.13;15.40;;;8.60;99.90;;;;;;5047116;28;20219;-62
2021/12/03 08:06:09;;;;;;;25.20;15.43;;;8.60;99.90;;;;;;5029389;28;20648;-62
2021/12/03 08:08:39;;;;;;;28.00;15.47;;;8.50;99.90;;;;;;5031930;28;20182;-62
2021/12/03 08:11:05;;;;;;;29.37;15.57;;;8.60;99.90;;;;;;5032181;28;20260;-62
2021/12/03 08:13:31;;;;;;;30.83;15.83;;;8.50;99.90;;;;;;5031931;28;20214;-62
2021/12/03 08:15:57;;;;;;;28.23;16.03;;;8.50;99.90;;;;;;5032371;28;20252;-62
2021/12/03 08:18:23;;;;;;;26.50;14.47;;;8.40;99.90;;;;;;5031486;28;20553;-63
2021/12/03 08:20:49;;;;;;;27.53;15.00;;;8.30;99.90;;;;;;5031197;28;20524;-62
2021/12/03 08:23:14;;;;;;;25.97;13.43;;;8.20;99.90;;;;;;5032150;28;20683;-62
2021/12/03 08:25:40;;;;;;;25.17;13.83;;;8.20;99.90;;;;;;5032271;28;20867;-62
2021/12/03 08:28:07;;;;;;;25.67;14.87;;;8.20;99.90;;;;;;5031185;28;20170;-63
2021/12/03 08:30:32;;;;;;;33.03;15.73;;;8.20;99.90;;;;;;5032014;28;20166;-61
2021/12/03 08:32:59;;;;;;;25.17;13.90;;;8.30;99.90;;;;;;5032029;28;20201;-61
2021/12/03 08:35:25;;;;;;;24.23;13.07;;;8.30;99.90;;;;;;5031908;28;20228;-62
2021/12/03 08:37:51;;;;;;;25.03;12.97;;;8.40;99.90;;;;;;5031862;28;20304;-63
2021/12/03 08:40:19;;;;;;;23.43;13.47;;;8.50;99.90;;;;;;5031498;28;20189;-61
2021/12/03 08:42:45;;;;;;;25.40;12.70;;;8.50;99.90;;;;;;5031921;28;20217;-61
2021/12/03 08:45:13;;;;;;;25.57;12.23;;;8.50;99.90;;;;;;5031460;28;20178;-61
2021/12/03 08:47:39;;;;;;;22.00;12.17;;;8.40;99.90;;;;;;5031767;28;20188;-61
2021/12/03 08:50:13;;;;;;;14.53;9.77;;;8.40;99.90;;;;;;5031155;28;20178;-62
2021/12/03 08:52:53;;;;;;;18.50;10.33;;;8.50;99.90;;;;;;5033017;28;20185;-59
2021/12/03 08:55:19;;;;;;;22.33;11.03;;;8.50;99.90;;;;;;5024054;28;20261;-59
2021/12/03 08:57:45;;;;;;;22.20;12.17;;;8.50;99.90;;;;;;5024943;28;20178;-59
2021/12/03 09:00:19;;;;;;;22.47;12.90;;;8.60;99.90;;;;;;5030852;28;20178;-59
2021/12/03 09:02:45;;;;;;;23.23;12.37;;;8.60;99.90;;;;;;5013877;28;20209;-62
2021/12/03 09:05:12;;;;;;;27.07;13.77;;;8.60;99.90;;;;;;5031268;28;20169;-58
2021/12/03 09:07:39;;;;;;;21.50;12.83;;;8.70;99.90;;;;;;5031302;28;20170;-58
2021/12/03 09:10:09;;;;;;;24.57;14.23;;;8.80;99.90;;;;;;5030386;28;20181;-66
2021/12/03 09:12:35;;;;;;;24.27;13.57;;;8.90;99.90;;;;;;5030496;28;20232;-60
2021/12/03 09:15:05;;;;;;;24.10;14.27;;;8.90;99.90;;;;;;5030745;28;20217;-60
2021/12/03 09:24:54;;;;;;;24.73;15.30;;;9.20;99.90;;;;;;5029542;28;20174;-60
2021/12/03 09:27:20;;;;;;;27.20;16.20;;;9.40;99.90;;;;;;5031207;28;20822;-60
2021/12/03 09:29:47;;;;;;;28.23;15.90;;;9.50;99.90;;;;;;5021751;28;20201;-60
2021/12/03 09:32:21;;;;;;;28.03;16.37;;;10.20;99.90;;;;;;5030390;28;20265;-61
2021/12/03 09:34:47;;;;;;;27.40;16.00;;;10.20;99.90;;;;;;5030435;28;20640;-60
2021/12/03 09:37:12;;;;;;;24.63;16.37;;;10.30;99.90;;;;;;5029967;28;20205;-61
2021/12/03 09:39:43;;;;;;;26.83;15.83;;;10.70;99.90;;;;;;5030104;28;20264;-61
2021/12/03 09:42:10;;;;;;;26.47;15.17;;;11.00;99.90;;;;;;5037931;28;20633;-61
2021/12/03 09:44:44;;;;;;;27.67;14.73;;;10.60;99.90;;;;;;5031037;28;20221;-60
2021/12/03 09:47:10;;;;;;;32.67;17.57;;;10.30;99.90;;;;;;5030634;28;20184;-60
2021/12/03 09:49:38;;;;;;;32.43;15.97;;;10.00;99.90;;;;;;5012863;28;20181;-60
2021/12/03 09:52:16;;;;;;;30.17;15.03;;;9.90;99.90;;;;;;5030198;28;20644;-60
2021/12/03 09:54:45;;;;;;;22.97;13.70;;;10.00;99.90;;;;;;5030868;28;20197;-62
2021/12/03 09:57:16;;;;;;;23.50;13.27;;;10.00;99.90;;;;;;5030083;28;20548;-60
2021/12/03 10:13:34;;;;;;;21.30;11.80;;;10.10;99.90;;;;;;5029198;28;20232;-60
2021/12/03 10:17:14;;;;;;;20.93;11.77;;;10.30;99.90;;;;;;5029795;28;20184;-60
2021/12/03 10:18:57;;;;;;;18.87;11.00;;;10.50;99.90;;;;;;5021477;28;20193;-60
2021/12/03 10:24:37;;;;;;;21.63;10.33;;;10.80;99.90;;;;;;5030027;28;20293;-60
2021/12/03 10:27:39;;;;;;;26.40;11.83;;;10.90;99.90;;;;;;5030560;28;20174;-60
2021/12/03 10:46:40;;;;;;;25.08;12.45;;;12.10;99.90;;;;;;5030290;28;20174;-60
2021/12/03 10:55:09;;;;;;;16.08;9.18;;;12.10;99.90;;;;;;5030638;28;20609;-60
2021/12/03 11:03:54;;;;;;;19.73;8.80;;;11.70;99.90;;;;;;5030257;28;20201;-61
2021/12/03 13:09:18;;;;;;;11.07;6.23;;;11.10;99.90;;;;;;5011691;28;20198;-60
2021/12/03 13:39:27;;;;;;;12.97;6.23;;;11.10;99.90;;;;;;5011363;28;20202;-60
2021/12/03 14:30:14;;;;;;;11.53;5.37;;;10.90;99.90;;;;;;5030713;28;20170;-61
2021/12/03 14:39:29;;;;;;;12.70;5.20;;;10.90;99.90;;;;;;5030810;28;20193;-61
2021/12/03 14:47:34;;;;;;;18.17;5.53;;;10.80;99.90;;;;;;5030769;28;20178;-61
2021/12/03 14:55:43;;;;;;;12.60;4.57;;;10.60;99.90;;;;;;5030573;28;20244;-61
2021/12/03 15:01:24;;;;;;;12.33;4.37;;;10.60;99.90;;;;;;5034402;28;20590;-61
2021/12/03 15:06:39;;;;;;;8.23;4.80;;;10.60;99.90;;;;;;5034116;28;20178;-61
2021/12/03 15:09:16;;;;;;;12.73;5.10;;;10.60;99.90;;;;;;5033909;28;20224;-61
2021/12/03 15:22:22;;;;;;;10.43;4.13;;;10.50;99.90;;;;;;5033771;28;20166;-61
2021/12/03 15:32:41;;;;;;;10.77;4.40;;;10.40;99.90;;;;;;5033454;28;20201;-61
2021/12/03 15:35:47;;;;;;;10.93;4.27;;;10.40;99.90;;;;;;5033593;28;20182;-61
2021/12/03 15:40:42;;;;;;;17.23;4.53;;;10.30;99.90;;;;;;5033355;28;20539;-61
2021/12/03 16:13:41;;;;;;;7.50;2.40;;;10.10;99.90;;;;;;4978024;28;20222;-61
2021/12/03 16:53:31;;;;;;;9.87;3.83;;;9.90;99.90;;;;;;5051965;28;20180;-65
2021/12/03 16:56:10;;;;;;;15.47;3.57;;;9.90;99.90;;;;;;5051909;28;20169;-60
2021/12/03 16:58:38;;;;;;;8.30;3.53;;;9.90;99.90;;;;;;5047388;28;20644;-60
2021/12/03 17:50:43;;;;;;;20.03;7.83;;;9.40;99.90;;;;;;5015752;28;20752;-60
2021/12/03 17:58:49;;;;;;;11.17;6.63;;;9.30;99.90;;;;;;5001661;28;20274;-59
2021/12/03 18:01:03;;;;;;;21.27;7.67;;;9.30;99.90;;;;;;5029764;28;20190;-58
2021/12/03 18:17:30;;;;;;;18.57;7.53;;;9.20;99.90;;;;;;5030831;28;20204;-57
2021/12/03 18:55:50;;;;;;;14.27;7.37;;;9.10;99.90;;;;;;5033474;28;20268;-57
2021/12/03 18:58:16;;;;;;;14.23;6.73;;;9.10;99.90;;;;;;5032989;28;20169;-58
2021/12/03 19:00:44;;;;;;;23.70;13.07;;;9.10;99.90;;;;;;5033673;28;20185;-58
2021/12/03 19:03:28;;;;;;;12.33;6.37;;;9.10;99.90;;;;;;5029303;28;20262;-58
2021/12/03 19:08:49;;;;;;;14.07;7.10;;;9.10;99.90;;;;;;5034401;28;20253;-58
2021/12/03 19:11:17;;;;;;;18.37;9.03;;;9.10;99.90;;;;;;5029936;28;20185;-57
2021/12/03 19:13:43;;;;;;;21.00;6.97;;;9.10;99.90;;;;;;5014088;28;20214;-57
2021/12/03 19:16:11;;;;;;;21.00;9.37;;;9.10;99.90;;;;;;5014074;28;20182;-58
2021/12/03 19:18:43;;;;;;;37.30;21.23;;;9.10;99.90;;;;;;5013811;28;20167;-59
2021/12/03 19:21:13;;;;;;;11.17;5.23;;;9.10;99.90;;;;;;5032187;28;20239;-58
2021/12/03 19:23:38;;;;;;;12.83;5.30;;;9.10;99.90;;;;;;5032623;28;20255;-58
2021/12/03 19:26:04;;;;;;;35.33;20.43;;;9.10;99.90;;;;;;5033672;28;20162;-58
2021/12/03 19:28:32;;;;;;;21.40;10.63;;;9.10;99.90;;;;;;5033548;28;20531;-58
2021/12/03 19:30:58;;;;;;;16.97;8.03;;;9.10;99.90;;;;;;5032774;28;20178;-58
2021/12/03 19:33:25;;;;;;;14.37;7.63;;;9.00;99.90;;;;;;5032976;28;21879;-58
2021/12/03 19:35:51;;;;;;;19.63;8.40;;;9.00;99.90;;;;;;5032381;28;20260;-58
2021/12/03 19:38:18;;;;;;;25.80;10.83;;;8.90;99.90;;;;;;5025923;28;20174;-58
2021/12/03 19:40:54;;;;;;;39.57;16.63;;;8.90;99.90;;;;;;5025513;28;20666;-58
2021/12/03 19:43:27;;;;;;;30.40;12.67;;;8.80;99.90;;;;;;5033096;28;20815;-58
2021/12/03 19:45:59;;;;;;;26.70;11.17;;;8.70;99.90;;;;;;5031216;28;20182;-59
2021/12/03 19:48:34;;;;;;;28.17;12.30;;;8.60;99.90;;;;;;5014840;28;20193;-58
2021/12/03 19:51:00;;;;;;;25.63;11.20;;;8.60;99.90;;;;;;5032979;28;20166;-58
2021/12/03 19:53:32;;;;;;;23.37;10.53;;;8.50;99.90;;;;;;5032886;28;20180;-58
2021/12/03 19:55:57;;;;;;;23.70;11.17;;;8.50;99.90;;;;;;5032712;28;20178;-58
2021/12/03 19:58:23;;;;;;;26.97;10.73;;;8.50;99.90;;;;;;5034793;28;20196;-58
2021/12/03 20:00:50;;;;;;;25.23;10.80;;;8.30;99.90;;;;;;5031467;28;20182;-58
2021/12/03 20:03:16;;;;;;;23.83;10.73;;;8.30;99.90;;;;;;5032541;28;20210;-58
2021/12/03 20:05:42;;;;;;;20.10;10.50;;;8.20;99.90;;;;;;5014666;28;20170;-58
2021/12/03 20:08:08;;;;;;;26.73;11.07;;;8.10;99.90;;;;;;5032553;28;20600;-58
2021/12/03 20:10:46;;;;;;;25.50;9.83;;;8.00;99.90;;;;;;5032490;28;20178;-58
2021/12/03 20:13:12;;;;;;;24.80;9.80;;;8.00;99.90;;;;;;5032589;28;20217;-58
2021/12/03 20:16:08;;;;;;;20.00;9.47;;;7.90;99.90;;;;;;5031550;28;20189;-58
2021/12/03 20:18:42;;;;;;;27.20;8.83;;;7.90;99.90;;;;;;5012559;28;20371;-58
2021/12/03 20:21:10;;;;;;;18.50;9.43;;;7.80;99.90;;;;;;5013092;28;20183;-58
2021/12/03 20:23:57;;;;;;;23.67;9.70;;;7.80;99.90;;;;;;5012734;28;20218;-58
2021/12/03 20:26:47;;;;;;;23.90;11.63;;;7.70;99.90;;;;;;5029129;28;20231;-58
2021/12/03 20:31:42;;;;;;;20.17;9.57;;;7.70;99.90;;;;;;5032099;28;20170;-57
2021/12/03 20:34:27;;;;;;;44.57;18.87;;;7.80;99.90;;;;;;5032279;28;20178;-58
2021/12/03 20:36:58;;;;;;;39.03;16.63;;;7.60;99.90;;;;;;5032371;28;20170;-57
2021/12/03 20:39:28;;;;;;;45.50;15.30;;;7.60;99.90;;;;;;5032641;28;20178;-58
2021/12/03 20:42:04;;;;;;;29.73;13.07;;;7.60;99.90;;;;;;5032079;28;20209;-58
2021/12/03 20:52:46;;;;;;;20.07;8.40;;;7.40;99.90;;;;;;5032048;28;20262;-58
2021/12/03 20:58:06;;;;;;;22.93;10.30;;;7.20;99.90;;;;;;5031705;28;20174;-58